createdAt,value
2019-04-22T00:01:40.467Z,11.68
2019-04-22T00:04:55.035Z,11.41
2019-04-22T00:08:21.005Z,11.57
2019-04-22T00:11:26.027Z,11.33
2019-04-22T00:14:23.844Z,11.15
2019-04-22T00:17:38.612Z,11.73
2019-04-22T00:20:43.881Z,11.28
2019-04-22T00:23:47.835Z,11.27
2019-04-22T00:26:50.138Z,11.65
2019-04-22T00:30:09.172Z,11.65
2019-04-22T00:33:08.055Z,11.62
2019-04-22T00:36:17.823Z,11.37
2019-04-22T00:39:22.000Z,11.47
2019-04-22T00:42:28.941Z,11.43
2019-04-22T00:45:33.140Z,11.40
2019-04-22T00:48:43.041Z,11.51
2019-04-22T00:52:05.183Z,11.50
2019-04-22T00:54:54.438Z,11.36
2019-04-22T00:57:54.666Z,11.24
2019-04-22T01:01:02.252Z,11.40
2019-04-22T01:04:14.351Z,11.48
2019-04-22T01:07:11.429Z,11.32
2019-04-22T01:10:19.008Z,11.26
2019-04-22T01:13:25.156Z,11.02
2019-04-22T01:16:29.802Z,11.24
2019-04-22T01:19:47.146Z,11.20
2019-04-22T01:22:40.606Z,11.13
2019-04-22T01:25:46.386Z,11.22
2019-04-22T01:28:46.445Z,11.29
2019-04-22T01:31:41.606Z,11.16
2019-04-22T01:35:00.637Z,10.82
2019-04-22T01:38:11.985Z,11.41
2019-04-22T01:41:22.997Z,11.25
2019-04-22T01:47:38.031Z,10.99
2019-04-22T01:50:36.851Z,11.05
2019-04-22T01:53:50.436Z,10.46
2019-04-22T01:56:53.973Z,10.47
2019-04-22T01:59:45.817Z,10.54
2019-04-22T02:03:05.561Z,10.37
2019-04-22T02:06:07.578Z,10.12
2019-04-22T02:09:21.155Z,10.11
2019-04-22T02:12:20.009Z,10.12
2019-04-22T02:15:23.334Z,9.89
2019-04-22T02:18:31.905Z,9.68
2019-04-22T02:21:35.440Z,9.80
2019-04-22T02:24:46.234Z,9.53
2019-04-22T02:27:51.473Z,9.37
2019-04-22T02:40:09.214Z,9.56
2019-04-22T02:43:33.975Z,9.40
2019-04-22T02:49:30.114Z,9.20
2019-04-22T02:55:40.812Z,9.10
2019-04-22T03:02:09.965Z,9.14
2019-04-22T03:05:19.475Z,9.42
2019-04-22T03:14:26.296Z,9.06
2019-04-22T03:17:30.875Z,9.19
2019-04-22T03:20:29.157Z,9.04
2019-04-22T03:23:47.567Z,9.01
2019-04-22T03:26:39.047Z,8.88
2019-04-22T03:33:23.511Z,9.13
2019-04-22T03:42:46.768Z,8.96
2019-04-22T03:45:58.761Z,8.90
2019-04-22T03:49:03.806Z,8.73
2019-04-22T03:52:07.314Z,8.59
2019-04-22T03:55:15.168Z,8.52
2019-04-22T03:57:58.467Z,8.43
2019-04-22T04:01:22.998Z,8.63
2019-04-22T04:07:46.119Z,8.74
2019-04-22T04:10:35.377Z,8.53
2019-04-22T04:13:35.935Z,8.44
2019-04-22T04:16:47.703Z,8.32
2019-04-22T04:23:05.660Z,8.83
2019-04-22T04:25:57.280Z,8.50
2019-04-22T04:35:23.943Z,8.85
2019-04-22T04:38:20.795Z,8.86
2019-04-22T04:47:57.827Z,9.13
2019-04-22T04:50:54.764Z,9.17
2019-04-22T04:54:13.411Z,9.31
2019-04-22T04:57:17.409Z,9.13
2019-04-22T05:06:12.992Z,9.43
2019-04-22T05:12:35.521Z,9.88
2019-04-22T05:15:26.996Z,9.64
2019-04-22T05:18:37.292Z,9.93
2019-04-22T05:21:39.644Z,10.10
2019-04-22T05:24:47.859Z,10.15
2019-04-22T05:27:45.358Z,10.46
2019-04-22T05:30:47.634Z,10.49
2019-04-22T05:34:01.240Z,10.47
2019-04-22T05:37:05.284Z,10.60
2019-04-22T05:40:10.330Z,10.80
2019-04-22T05:43:11.058Z,11.07
2019-04-22T05:46:20.748Z,11.05
2019-04-22T05:52:25.600Z,11.28
2019-04-22T05:55:36.290Z,11.37
2019-04-22T05:58:41.513Z,11.35
2019-04-22T06:01:55.054Z,11.35
2019-04-22T06:04:54.960Z,11.40
2019-04-22T06:07:53.809Z,11.78
2019-04-22T06:10:58.121Z,11.70
2019-04-22T06:14:01.903Z,11.89
2019-04-22T06:17:20.485Z,12.07
2019-04-22T06:20:15.883Z,12.13
2019-04-22T06:26:40.630Z,12.30
2019-04-22T06:29:33.516Z,12.48
2019-04-22T06:32:42.215Z,12.55
2019-04-22T06:35:54.517Z,12.71
2019-04-22T06:38:59.075Z,12.73
2019-04-22T06:42:01.066Z,13.05
2019-04-22T06:45:04.147Z,13.03
2019-04-22T06:48:13.109Z,13.06
2019-04-22T06:51:12.380Z,13.27
2019-04-22T06:54:21.700Z,12.99
2019-04-22T06:57:25.215Z,13.50
2019-04-22T07:00:32.444Z,13.38
2019-04-22T07:03:52.347Z,13.59
2019-04-22T07:06:48.083Z,13.92
2019-04-22T07:12:53.915Z,13.95
2019-04-22T07:15:59.532Z,13.95
2019-04-22T07:19:09.233Z,14.23
2019-04-22T07:25:15.860Z,14.63
2019-04-22T07:28:20.563Z,15.00
2019-04-22T07:31:27.254Z,15.09
2019-04-22T07:47:08.375Z,15.92
2019-04-22T07:50:09.847Z,15.78
2019-04-22T07:53:05.359Z,16.05
2019-04-22T07:56:16.235Z,16.16
2019-04-22T07:59:22.461Z,16.01
2019-04-22T08:02:18.859Z,16.39
2019-04-22T08:05:37.837Z,16.45
2019-04-22T08:08:38.904Z,16.55
2019-04-22T08:14:45.634Z,16.73
2019-04-22T08:20:59.688Z,16.88
2019-04-22T08:24:06.313Z,16.84
2019-04-22T08:27:11.944Z,17.36
2019-04-22T08:30:21.982Z,17.80
2019-04-22T08:33:21.708Z,17.32
2019-04-22T08:36:26.033Z,17.93
2019-04-22T08:39:32.546Z,17.43
2019-04-22T08:42:53.333Z,17.85
2019-04-22T08:48:57.354Z,18.06
2019-04-22T08:52:01.446Z,18.02
2019-04-22T08:55:11.335Z,18.63
2019-04-22T08:58:25.583Z,18.95
2019-04-22T09:04:16.394Z,17.96
2019-04-22T09:07:31.855Z,18.85
2019-04-22T09:10:37.812Z,19.09
2019-04-22T09:13:43.352Z,19.30
2019-04-22T09:16:48.583Z,19.83
2019-04-22T09:19:55.941Z,19.17
2019-04-22T09:23:03.996Z,19.87
2019-04-22T09:26:01.338Z,19.68
2019-04-22T09:29:16.170Z,19.91
2019-04-22T09:35:30.488Z,20.18
2019-04-22T09:41:33.737Z,20.34
2019-04-22T09:44:40.338Z,21.11
2019-04-22T09:47:49.219Z,21.37
2019-04-22T09:50:47.905Z,21.42
2019-04-22T09:54:00.756Z,21.30
2019-04-22T09:56:56.506Z,22.00
2019-04-22T10:03:13.901Z,21.99
2019-04-22T10:06:24.766Z,22.24
2019-04-22T10:12:32.152Z,23.47
2019-04-22T10:15:32.355Z,22.93
2019-04-22T10:18:39.146Z,23.58
2019-04-22T10:21:57.273Z,23.87
2019-04-22T10:24:55.405Z,24.11
2019-04-22T10:28:01.849Z,26.68
2019-04-22T10:31:00.396Z,29.55
2019-04-22T10:33:58.463Z,29.02
2019-04-22T10:36:54.322Z,29.87
2019-04-22T10:39:58.784Z,29.85
2019-04-22T10:42:59.464Z,30.13
2019-04-22T10:46:04.159Z,30.01
2019-04-22T10:49:08.444Z,30.42
2019-04-22T10:52:12.945Z,28.60
2019-04-22T10:55:17.319Z,29.74
2019-04-22T10:58:22.784Z,28.74
2019-04-22T11:01:27.567Z,29.99
2019-04-22T11:04:32.252Z,28.85
2019-04-22T11:07:44.308Z,29.05
2019-04-22T11:10:54.249Z,30.92
2019-04-22T11:13:47.695Z,29.19
2019-04-22T11:16:51.471Z,35.10
2019-04-22T11:25:54.964Z,28.04
2019-04-22T11:28:59.354Z,29.87
2019-04-22T11:32:04.257Z,31.83
2019-04-22T11:35:09.886Z,31.96
2019-04-22T11:38:15.005Z,33.15
2019-04-22T11:41:19.469Z,33.83
2019-04-22T11:44:23.599Z,34.08
2019-04-22T11:47:27.515Z,34.15
2019-04-22T11:50:31.952Z,34.27
2019-04-22T11:53:36.708Z,34.46
2019-04-22T11:56:41.115Z,35.18
2019-04-22T11:59:45.080Z,34.74
2019-04-22T12:02:49.364Z,34.63
2019-04-22T12:05:53.082Z,35.03
2019-04-22T12:08:57.554Z,35.37
2019-04-22T12:12:03.414Z,35.36
2019-04-22T12:15:08.531Z,35.01
2019-04-22T12:18:15.293Z,33.35
2019-04-22T12:21:19.449Z,34.75
2019-04-22T12:24:24.964Z,34.87
2019-04-22T12:27:30.056Z,34.91
2019-04-22T12:30:35.250Z,34.94
2019-04-22T12:33:39.446Z,34.31
2019-04-22T12:36:44.846Z,33.32
2019-04-22T12:39:52.981Z,34.81
2019-04-22T12:42:55.412Z,35.18
2019-04-22T12:46:00.403Z,33.79
2019-04-22T12:49:04.606Z,33.43
2019-04-22T12:52:10.452Z,34.31
2019-04-22T12:55:17.312Z,32.44
2019-04-22T12:58:20.422Z,33.89
2019-04-22T13:01:24.687Z,34.13
2019-04-22T13:04:30.048Z,33.30
2019-04-22T13:07:33.963Z,32.41
2019-04-22T13:10:48.647Z,32.94
2019-04-22T13:13:44.957Z,33.22
2019-04-22T13:16:49.260Z,32.95
2019-04-22T13:19:54.086Z,32.32
2019-04-22T13:22:59.579Z,32.07
2019-04-22T13:26:03.371Z,31.08
2019-04-22T13:29:07.516Z,31.83
2019-04-22T13:32:13.011Z,32.57
2019-04-22T13:35:22.062Z,31.94
2019-04-22T13:38:27.040Z,31.34
2019-04-22T13:41:39.988Z,30.89
2019-04-22T13:44:37.695Z,31.10
2019-04-22T13:48:06.872Z,31.57
2019-04-22T13:51:15.083Z,30.67
2019-04-22T13:57:19.672Z,31.01
2019-04-22T14:00:05.702Z,29.43
2019-04-22T14:03:47.058Z,30.44
2019-04-22T14:06:50.845Z,30.63
2019-04-22T14:09:55.994Z,29.83
2019-04-22T14:13:02.007Z,29.01
2019-04-22T14:16:06.817Z,28.90
2019-04-22T14:19:11.890Z,27.97
2019-04-22T14:22:16.025Z,27.20
2019-04-22T14:25:20.817Z,27.00
2019-04-22T14:28:26.560Z,26.53
2019-04-22T14:31:30.810Z,26.53
2019-04-22T14:34:36.255Z,26.55
2019-04-22T14:37:40.376Z,25.89
2019-04-22T14:40:45.456Z,25.53
2019-04-22T14:44:45.125Z,25.38
2019-04-22T14:47:19.958Z,25.29
2019-04-22T14:50:22.313Z,24.99
2019-04-22T14:53:25.897Z,24.58
2019-04-22T14:56:13.731Z,24.29
2019-04-22T14:59:18.874Z,24.19
2019-04-22T15:02:23.681Z,23.86
2019-04-22T15:05:28.224Z,24.05
2019-04-22T15:08:32.982Z,24.03
2019-04-22T15:11:52.591Z,23.50
2019-04-22T15:14:43.601Z,23.44
2019-04-22T15:17:54.652Z,23.46
2019-04-22T15:21:02.736Z,23.15
2019-04-22T15:24:27.350Z,23.05
2019-04-22T15:27:31.388Z,23.02
2019-04-22T15:30:35.582Z,22.73
2019-04-22T15:33:39.636Z,22.53
2019-04-22T15:36:44.441Z,22.41
2019-04-22T15:39:49.756Z,21.43
2019-04-22T15:42:55.016Z,20.92
2019-04-22T15:46:02.354Z,21.00
2019-04-22T15:49:06.367Z,20.60
2019-04-22T15:52:12.527Z,20.61
2019-04-22T15:55:18.758Z,20.60
2019-04-22T15:58:23.823Z,20.50
2019-04-22T16:01:33.648Z,20.45
2019-04-22T16:04:34.713Z,20.41
2019-04-22T16:07:40.042Z,20.35
2019-04-22T16:10:44.156Z,20.30
2019-04-22T16:13:48.383Z,20.15
2019-04-22T16:16:54.589Z,20.09
2019-04-22T16:19:59.410Z,20.11
2019-04-22T16:23:32.164Z,19.97
2019-04-22T16:26:58.198Z,19.91
2019-04-22T16:30:03.417Z,19.94
2019-04-22T16:33:07.965Z,19.83
2019-04-22T16:36:13.018Z,19.80
2019-04-22T16:39:18.509Z,19.68
2019-04-22T16:42:31.647Z,19.66
2019-04-22T16:45:27.761Z,19.59
2019-04-22T16:48:31.722Z,19.59
2019-04-22T16:51:38.221Z,19.54
2019-04-22T16:54:42.189Z,19.49
2019-04-22T16:57:46.358Z,19.49
2019-04-22T17:00:50.199Z,19.37
2019-04-22T17:04:06.818Z,19.31
2019-04-22T17:07:13.968Z,19.30
2019-04-22T17:10:18.008Z,19.23
2019-04-22T17:13:26.494Z,19.08
2019-04-22T17:16:28.462Z,19.02
2019-04-22T17:19:33.319Z,18.94
2019-04-22T17:22:37.719Z,18.88
2019-04-22T17:25:42.629Z,18.94
2019-04-22T17:28:46.603Z,18.64
2019-04-22T17:31:58.453Z,18.64
2019-04-22T17:34:57.266Z,18.64
2019-04-22T17:38:10.124Z,18.54
2019-04-22T17:41:21.206Z,18.39
2019-04-22T17:47:52.178Z,18.17
2019-04-22T17:51:16.063Z,18.03
2019-04-22T17:54:26.918Z,17.73
2019-04-22T17:57:17.901Z,17.73
2019-04-22T18:00:21.212Z,17.63
2019-04-22T18:03:17.570Z,17.78
2019-04-22T18:06:42.657Z,17.56
2019-04-22T18:10:14.093Z,17.43
2019-04-22T18:12:53.539Z,17.40
2019-04-22T18:15:51.492Z,17.44
2019-04-22T18:18:56.870Z,17.27
2019-04-22T18:21:51.687Z,17.15
2019-04-22T18:24:58.250Z,17.05
2019-04-22T18:31:13.683Z,16.99
2019-04-22T18:34:16.959Z,16.86
2019-04-22T18:37:23.718Z,16.88
2019-04-22T18:40:31.056Z,16.82
2019-04-22T18:43:42.441Z,16.61
2019-04-22T18:46:42.717Z,16.65
2019-04-22T18:49:46.089Z,16.54
2019-04-22T18:53:03.242Z,16.55
2019-04-22T18:56:16.367Z,16.47
2019-04-22T18:59:09.075Z,16.34
2019-04-22T19:02:09.057Z,16.28
2019-04-22T19:05:23.566Z,16.07
2019-04-22T19:08:36.977Z,16.03
2019-04-22T19:11:53.915Z,15.96
2019-04-22T19:14:58.987Z,15.86
2019-04-22T19:18:01.763Z,15.83
2019-04-22T19:21:02.755Z,15.79
2019-04-22T19:24:00.343Z,15.76
2019-04-22T19:27:09.249Z,15.66
2019-04-22T19:30:16.571Z,15.61
2019-04-22T19:33:23.595Z,15.45
2019-04-22T19:36:26.107Z,15.44
2019-04-22T19:39:29.833Z,15.40
2019-04-22T19:42:46.136Z,15.39
2019-04-22T19:45:42.986Z,15.34
2019-04-22T19:48:53.075Z,15.19
2019-04-22T19:52:05.675Z,15.18
2019-04-22T19:55:01.846Z,15.17
2019-04-22T19:58:13.164Z,15.06
2019-04-22T20:01:37.005Z,15.06
2019-04-22T20:04:55.330Z,14.93
2019-04-22T20:07:49.702Z,14.79
2019-04-22T20:11:03.951Z,14.73
2019-04-22T20:14:10.972Z,14.63
2019-04-22T20:17:07.972Z,14.52
2019-04-22T20:20:26.431Z,14.46
2019-04-22T20:23:20.470Z,14.32
2019-04-22T20:26:23.487Z,14.35
2019-04-22T20:29:37.763Z,14.35
2019-04-22T20:32:37.337Z,14.37
2019-04-22T20:35:46.571Z,14.29
2019-04-22T20:38:49.473Z,14.29
2019-04-22T20:42:05.579Z,14.25
2019-04-22T20:45:05.713Z,14.14
2019-04-22T20:48:00.202Z,14.01
2019-04-22T20:51:17.139Z,13.99
2019-04-22T20:54:19.315Z,13.86
2019-04-22T20:57:26.275Z,13.76
2019-04-22T21:00:29.389Z,13.69
2019-04-22T21:03:27.411Z,13.81
2019-04-22T21:06:44.274Z,13.69
2019-04-22T21:09:52.405Z,13.64
2019-04-22T21:12:41.814Z,13.52
2019-04-22T21:16:06.265Z,13.43
2019-04-22T21:19:04.403Z,13.40
2019-04-22T21:22:19.384Z,13.37
2019-04-22T21:25:11.328Z,13.39
2019-04-22T21:28:21.513Z,13.34
2019-04-22T21:31:30.724Z,13.30
2019-04-22T21:34:32.282Z,13.26
2019-04-22T21:37:43.198Z,13.08
2019-04-22T21:40:42.782Z,13.07
2019-04-22T21:43:52.653Z,13.08
2019-04-22T21:47:03.348Z,13.12
2019-04-22T21:50:21.546Z,13.16
2019-04-22T21:53:14.552Z,13.14
2019-04-22T21:56:35.257Z,13.12
2019-04-22T21:59:19.172Z,13.05
2019-04-22T22:05:28.416Z,12.91
2019-04-22T22:08:40.234Z,12.97
2019-04-22T22:11:46.786Z,12.91
2019-04-22T22:14:51.547Z,12.81
2019-04-22T22:17:55.515Z,12.75
2019-04-22T22:21:19.389Z,12.81
2019-04-22T22:24:10.132Z,12.78
2019-04-22T22:27:14.618Z,12.73
2019-04-22T22:30:40.049Z,12.74
2019-04-22T22:33:24.235Z,12.76
2019-04-22T22:36:27.128Z,12.74
2019-04-22T22:39:29.804Z,12.70
2019-04-22T22:42:29.064Z,12.82
2019-04-22T22:45:37.006Z,12.73
2019-04-22T22:49:03.199Z,12.66
2019-04-22T22:52:16.680Z,12.77
2019-04-22T22:55:06.872Z,12.71
2019-04-22T22:58:11.474Z,12.59
2019-04-22T23:01:14.980Z,12.54
2019-04-22T23:04:30.647Z,12.60
2019-04-22T23:07:46.326Z,12.60
2019-04-22T23:10:45.385Z,12.47
2019-04-22T23:13:42.806Z,12.40
2019-04-22T23:16:33.954Z,12.39
2019-04-22T23:19:33.673Z,12.39
2019-04-22T23:22:58.964Z,12.39
2019-04-22T23:25:59.706Z,12.43
2019-04-22T23:29:07.210Z,12.30
2019-04-22T23:32:17.240Z,12.42
2019-04-22T23:35:36.987Z,12.32
2019-04-22T23:38:54.935Z,12.31
2019-04-22T23:42:17.989Z,12.34
2019-04-22T23:45:03.825Z,12.36
2019-04-22T23:47:49.903Z,12.34
2019-04-22T23:51:10.766Z,12.26
2019-04-22T23:54:13.173Z,12.31
2019-04-22T23:57:15.472Z,12.41
